createdAt,value
2018-03-26T00:00:47.652Z,58.84
2018-03-26T00:01:47.666Z,58.84
2018-03-26T00:02:47.690Z,59.23
2018-03-26T00:03:47.719Z,59.51
2018-03-26T00:04:47.756Z,59.32
2018-03-26T00:05:47.762Z,59.80
2018-03-26T00:06:47.801Z,59.70
2018-03-26T00:07:47.817Z,59.32
2018-03-26T00:08:47.855Z,59.23
2018-03-26T00:09:47.878Z,59.23
2018-03-26T00:10:47.898Z,59.70
2018-03-26T00:11:47.916Z,60.11
2018-03-26T00:12:47.947Z,59.16
2018-03-26T00:13:47.989Z,59.54
2018-03-26T00:14:48.004Z,59.45
2018-03-26T00:15:48.041Z,59.51
2018-03-26T00:16:48.060Z,59.51
2018-03-26T00:17:48.092Z,59.89
2018-03-26T00:18:48.091Z,59.42
2018-03-26T00:19:48.124Z,59.23
2018-03-26T00:20:48.144Z,59.61
2018-03-26T00:21:48.215Z,59.51
2018-03-26T00:22:48.198Z,59.51
2018-03-26T00:23:48.224Z,59.23
2018-03-26T00:24:48.244Z,59.51
2018-03-26T00:25:48.279Z,59.32
2018-03-26T00:26:48.291Z,59.61
2018-03-26T00:27:48.326Z,59.51
2018-03-26T00:28:48.354Z,59.54
2018-03-26T00:29:48.371Z,59.51
2018-03-26T00:30:48.409Z,59.26
2018-03-26T00:31:48.421Z,59.16
2018-03-26T00:32:48.449Z,59.74
2018-03-26T00:33:48.468Z,59.61
2018-03-26T00:34:48.545Z,59.51
2018-03-26T00:35:48.546Z,59.70
2018-03-26T00:36:48.593Z,59.89
2018-03-26T00:37:49.052Z,59.80
2018-03-26T00:38:48.596Z,59.89
2018-03-26T00:39:48.627Z,59.70
2018-03-26T00:40:48.640Z,59.61
2018-03-26T00:41:48.669Z,59.42
2018-03-26T00:42:48.691Z,59.13
2018-03-26T00:43:48.720Z,59.13
2018-03-26T00:44:48.787Z,59.13
2018-03-26T00:45:48.788Z,59.13
2018-03-26T00:46:48.802Z,59.61
2018-03-26T00:47:48.831Z,59.70
2018-03-26T00:48:48.877Z,59.80
2018-03-26T00:49:48.864Z,59.42
2018-03-26T00:50:48.896Z,59.70
2018-03-26T00:51:48.916Z,59.70
2018-03-26T00:52:48.957Z,59.61
2018-03-26T00:53:48.972Z,59.70
2018-03-26T00:54:48.997Z,59.70
2018-03-26T00:55:49.023Z,59.61
2018-03-26T00:56:49.044Z,59.80
2018-03-26T00:57:49.067Z,59.61
2018-03-26T00:58:49.090Z,59.61
2018-03-26T00:59:49.173Z,59.70
2018-03-26T01:00:49.141Z,59.80
2018-03-26T01:01:49.177Z,59.89
2018-03-26T01:02:49.195Z,59.89
2018-03-26T01:03:49.234Z,60.08
2018-03-26T01:04:49.246Z,60.18
2018-03-26T01:05:49.270Z,60.08
2018-03-26T01:06:49.298Z,59.99
2018-03-26T01:07:49.318Z,60.18
2018-03-26T01:08:49.339Z,59.80
2018-03-26T01:09:49.362Z,60.08
2018-03-26T01:10:49.401Z,60.27
2018-03-26T01:11:49.414Z,60.37
2018-03-26T01:12:49.442Z,60.18
2018-03-26T01:13:49.467Z,60.56
2018-03-26T01:14:49.491Z,60.37
2018-03-26T01:15:49.532Z,60.46
2018-03-26T01:16:49.540Z,60.27
2018-03-26T01:17:49.603Z,60.27
2018-03-26T01:18:49.592Z,61.13
2018-03-26T01:19:49.618Z,60.94
2018-03-26T01:20:49.654Z,60.75
2018-03-26T01:21:49.676Z,61.04
2018-03-26T01:22:49.735Z,60.46
2018-03-26T01:23:49.720Z,60.66
2018-03-26T01:24:49.741Z,60.66
2018-03-26T01:25:49.763Z,60.94
2018-03-26T01:26:49.788Z,60.85
2018-03-26T01:27:49.822Z,60.85
2018-03-26T01:28:49.839Z,60.94
2018-03-26T01:29:49.893Z,60.08
2018-03-26T01:30:49.902Z,60.75
2018-03-26T01:31:49.921Z,60.94
2018-03-26T01:32:49.939Z,61.04
2018-03-26T01:33:49.971Z,60.94
2018-03-26T01:34:49.992Z,60.56
2018-03-26T01:35:50.013Z,60.94
2018-03-26T01:36:50.048Z,61.04
2018-03-26T01:37:50.061Z,60.75
2018-03-26T01:38:50.097Z,60.75
2018-03-26T01:39:50.112Z,60.75
2018-03-26T01:40:50.137Z,60.94
2018-03-26T01:41:50.171Z,60.75
2018-03-26T01:42:50.203Z,60.75
2018-03-26T01:43:50.210Z,60.75
2018-03-26T01:44:50.246Z,60.66
2018-03-26T01:45:50.262Z,60.75
2018-03-26T01:46:50.288Z,60.46
2018-03-26T01:47:50.315Z,60.46
2018-03-26T01:48:50.346Z,60.66
2018-03-26T01:49:50.372Z,60.46
2018-03-26T01:50:50.389Z,60.37
2018-03-26T01:51:50.426Z,60.94
2018-03-26T01:52:50.433Z,60.66
2018-03-26T01:53:50.460Z,60.66
2018-03-26T01:54:50.488Z,60.46
2018-03-26T01:55:50.514Z,61.22
2018-03-26T01:56:50.533Z,61.51
2018-03-26T01:57:50.560Z,61.13
2018-03-26T01:58:50.590Z,61.13
2018-03-26T01:59:50.627Z,61.13
2018-03-26T02:00:50.644Z,60.85
2018-03-26T02:01:50.656Z,61.61
2018-03-26T02:02:50.683Z,61.13
2018-03-26T02:03:50.706Z,61.22
2018-03-26T02:04:50.737Z,60.85
2018-03-26T02:05:50.763Z,61.42
2018-03-26T02:06:50.805Z,61.32
2018-03-26T02:07:50.826Z,61.61
2018-03-26T02:08:50.836Z,61.13
2018-03-26T02:09:50.867Z,61.22
2018-03-26T02:10:50.892Z,61.13
2018-03-26T02:11:50.909Z,61.70
2018-03-26T02:12:50.938Z,61.51
2018-03-26T02:13:50.960Z,61.42
2018-03-26T02:14:50.981Z,61.51
2018-03-26T02:15:51.010Z,60.94
2018-03-26T02:16:51.168Z,61.80
2018-03-26T02:17:51.058Z,61.70
2018-03-26T02:18:51.081Z,61.51
2018-03-26T02:19:51.104Z,61.80
2018-03-26T02:20:51.138Z,61.42
2018-03-26T02:21:51.154Z,60.66
2018-03-26T02:22:51.185Z,61.42
2018-03-26T02:23:51.209Z,61.42
2018-03-26T02:24:51.268Z,61.61
2018-03-26T02:25:51.267Z,60.85
2018-03-26T02:26:51.287Z,61.80
2018-03-26T02:27:51.308Z,60.94
2018-03-26T02:28:51.328Z,61.51
2018-03-26T02:29:51.364Z,61.32
2018-03-26T02:30:51.405Z,61.51
2018-03-26T02:31:51.403Z,61.32
2018-03-26T02:32:51.430Z,62.18
2018-03-26T02:33:51.457Z,61.90
2018-03-26T02:34:51.484Z,61.90
2018-03-26T02:35:51.503Z,61.70
2018-03-26T02:36:51.533Z,61.13
2018-03-26T02:37:51.551Z,61.51
2018-03-26T02:38:51.586Z,62.18
2018-03-26T02:39:51.598Z,62.15
2018-03-26T02:40:51.643Z,61.58
2018-03-26T02:41:51.647Z,61.29
2018-03-26T02:42:51.689Z,61.80
2018-03-26T02:43:51.697Z,61.51
2018-03-26T02:44:51.724Z,61.90
2018-03-26T02:45:51.766Z,61.90
2018-03-26T02:46:51.785Z,61.29
2018-03-26T02:47:51.803Z,61.04
2018-03-26T02:48:51.843Z,61.29
2018-03-26T02:49:51.849Z,61.90
2018-03-26T02:50:51.878Z,61.99
2018-03-26T02:51:51.956Z,61.58
2018-03-26T02:52:51.937Z,61.58
2018-03-26T02:53:51.956Z,61.86
2018-03-26T02:54:51.978Z,61.86
2018-03-26T02:55:52.008Z,61.86
2018-03-26T02:56:52.023Z,62.34
2018-03-26T02:57:52.047Z,62.24
2018-03-26T02:58:52.072Z,62.05
2018-03-26T02:59:52.100Z,62.05
2018-03-26T03:00:52.121Z,62.43
2018-03-26T03:01:52.148Z,61.86
2018-03-26T03:02:52.167Z,62.15
2018-03-26T03:03:52.213Z,62.05
2018-03-26T03:04:52.229Z,62.43
2018-03-26T03:05:52.246Z,61.86
2018-03-26T03:06:52.288Z,61.86
2018-03-26T03:07:52.291Z,62.05
2018-03-26T03:08:52.316Z,61.96
2018-03-26T03:09:52.339Z,62.05
2018-03-26T03:10:52.367Z,62.43
2018-03-26T03:11:52.389Z,62.05
2018-03-26T03:12:52.415Z,62.53
2018-03-26T03:13:52.437Z,62.62
2018-03-26T03:14:52.469Z,62.72
2018-03-26T03:15:52.498Z,61.86
2018-03-26T03:16:52.522Z,61.86
2018-03-26T03:17:52.535Z,61.86
2018-03-26T03:18:52.565Z,61.67
2018-03-26T03:19:52.611Z,61.77
2018-03-26T03:20:52.622Z,61.96
2018-03-26T03:21:52.643Z,61.77
2018-03-26T03:22:52.661Z,61.96
2018-03-26T03:23:52.702Z,62.05
2018-03-26T03:24:53.571Z,61.96
2018-03-26T03:25:52.730Z,62.15
2018-03-26T03:26:52.765Z,62.53
2018-03-26T03:27:52.784Z,62.53
2018-03-26T03:28:52.809Z,62.53
2018-03-26T03:29:52.835Z,62.05
2018-03-26T03:30:52.867Z,62.53
2018-03-26T03:31:52.880Z,62.43
2018-03-26T03:32:52.910Z,62.81
2018-03-26T03:33:52.934Z,62.81
2018-03-26T03:34:52.957Z,62.72
2018-03-26T03:35:52.984Z,62.34
2018-03-26T03:36:53.010Z,61.96
2018-03-26T03:37:53.040Z,62.43
2018-03-26T03:38:53.058Z,62.43
2018-03-26T03:39:53.085Z,62.43
2018-03-26T03:40:53.103Z,62.24
2018-03-26T03:41:53.126Z,61.96
2018-03-26T03:42:53.217Z,62.43
2018-03-26T03:43:53.177Z,63.01
2018-03-26T03:44:53.198Z,62.24
2018-03-26T03:45:53.228Z,62.34
2018-03-26T03:46:53.345Z,62.34
2018-03-26T03:47:53.276Z,62.34
2018-03-26T03:48:53.301Z,62.34
2018-03-26T03:49:53.321Z,62.43
2018-03-26T03:50:53.376Z,62.43
2018-03-26T03:51:53.375Z,62.34
2018-03-26T03:52:53.396Z,62.24
2018-03-26T03:53:53.418Z,62.34
2018-03-26T03:54:53.447Z,62.05
2018-03-26T03:55:53.468Z,62.53
2018-03-26T03:56:53.521Z,62.34
2018-03-26T03:57:53.543Z,62.34
2018-03-26T03:58:53.541Z,62.43
2018-03-26T03:59:53.573Z,62.43
2018-03-26T04:00:53.609Z,62.15
2018-03-26T04:01:53.615Z,62.53
2018-03-26T04:02:53.656Z,62.15
2018-03-26T04:03:53.680Z,62.53
2018-03-26T04:04:53.692Z,62.34
2018-03-26T04:05:53.715Z,62.05
2018-03-26T04:06:53.753Z,62.34
2018-03-26T04:07:53.765Z,62.34
2018-03-26T04:08:53.794Z,62.81
2018-03-26T04:09:53.817Z,63.10
2018-03-26T04:10:53.838Z,62.91
2018-03-26T04:11:53.862Z,62.91
2018-03-26T04:12:53.893Z,62.72
2018-03-26T04:13:53.927Z,62.62
2018-03-26T04:14:53.964Z,62.91
2018-03-26T04:15:53.959Z,62.62
2018-03-26T04:16:53.999Z,63.29
2018-03-26T04:17:54.025Z,63.39
2018-03-26T04:18:54.035Z,63.20
2018-03-26T04:19:54.056Z,63.20
2018-03-26T04:20:54.090Z,63.57
2018-03-26T04:21:54.105Z,63.01
2018-03-26T04:22:54.144Z,63.20
2018-03-26T04:23:54.171Z,62.72
2018-03-26T04:24:54.188Z,62.91
2018-03-26T04:25:54.209Z,62.91
2018-03-26T04:26:54.242Z,62.62
2018-03-26T04:27:54.251Z,63.29
2018-03-26T04:28:54.289Z,62.91
2018-03-26T04:29:54.313Z,63.20
2018-03-26T04:30:54.331Z,63.96
2018-03-26T04:31:54.358Z,63.96
2018-03-26T04:32:54.381Z,63.86
2018-03-26T04:33:54.400Z,63.76
2018-03-26T04:34:54.427Z,63.76
2018-03-26T04:35:54.448Z,63.86
2018-03-26T04:36:54.476Z,63.48
2018-03-26T04:37:54.511Z,63.57
2018-03-26T04:38:54.527Z,63.86
2018-03-26T04:39:54.544Z,63.57
2018-03-26T04:40:54.572Z,63.76
2018-03-26T04:41:54.601Z,64.21
2018-03-26T04:42:54.623Z,66.02
2018-03-26T04:43:55.585Z,66.55
2018-03-26T04:44:54.673Z,66.78
2018-03-26T04:45:54.696Z,66.59
2018-03-26T04:46:54.723Z,66.11
2018-03-26T04:47:54.749Z,66.20
2018-03-26T04:48:54.767Z,65.73
2018-03-26T04:49:54.790Z,65.92
2018-03-26T04:50:54.814Z,65.83
2018-03-26T04:51:54.838Z,65.54
2018-03-26T04:52:54.877Z,65.58
2018-03-26T04:53:54.897Z,65.29
2018-03-26T04:54:54.921Z,65.38
2018-03-26T04:55:55.016Z,65.00
2018-03-26T04:56:54.972Z,64.72
2018-03-26T04:57:54.988Z,64.62
2018-03-26T04:58:55.013Z,64.34
2018-03-26T04:59:55.036Z,64.24
2018-03-26T05:00:55.114Z,64.34
2018-03-26T05:01:55.088Z,64.43
2018-03-26T05:02:55.109Z,65.64
2018-03-26T05:03:55.132Z,66.39
2018-03-26T05:04:55.160Z,66.68
2018-03-26T05:05:55.310Z,66.78
2018-03-26T05:06:55.206Z,68.21
2018-03-26T05:07:55.235Z,67.44
2018-03-26T05:08:55.250Z,66.97
2018-03-26T05:09:55.282Z,66.39
2018-03-26T05:10:55.300Z,66.02
2018-03-26T05:11:55.338Z,66.49
2018-03-26T05:12:55.353Z,65.73
2018-03-26T05:13:55.374Z,65.92
2018-03-26T05:14:55.405Z,65.83
2018-03-26T05:15:55.427Z,66.20
2018-03-26T05:16:55.546Z,66.30
2018-03-26T05:17:55.487Z,66.24
2018-03-26T05:18:55.503Z,66.20
2018-03-26T05:19:55.519Z,66.02
2018-03-26T05:20:55.548Z,66.33
2018-03-26T05:21:55.572Z,66.43
2018-03-26T05:22:55.595Z,66.24
2018-03-26T05:23:55.626Z,66.24
2018-03-26T05:24:55.644Z,65.77
2018-03-26T05:25:55.672Z,65.86
2018-03-26T05:26:55.700Z,66.20
2018-03-26T05:27:55.775Z,66.59
2018-03-26T05:28:55.737Z,67.54
2018-03-26T05:29:55.767Z,67.16
2018-03-26T05:30:55.846Z,67.16
2018-03-26T05:31:55.865Z,67.07
2018-03-26T05:32:55.854Z,67.73
2018-03-26T05:33:55.878Z,67.73
2018-03-26T05:34:55.886Z,67.82
2018-03-26T05:35:55.914Z,67.63
2018-03-26T05:36:55.936Z,67.92
2018-03-26T05:37:55.955Z,67.54
2018-03-26T05:38:55.981Z,67.16
2018-03-26T05:39:56.012Z,66.87
2018-03-26T05:40:56.027Z,66.68
2018-03-26T05:41:56.059Z,66.39
2018-03-26T05:42:56.113Z,66.81
2018-03-26T05:43:56.101Z,66.14
2018-03-26T05:44:56.127Z,66.11
2018-03-26T05:45:56.156Z,67.16
2018-03-26T05:46:56.189Z,68.01
2018-03-26T05:47:56.203Z,68.01
2018-03-26T05:48:56.230Z,68.01
2018-03-26T05:49:56.247Z,68.01
2018-03-26T05:50:56.278Z,67.16
2018-03-26T05:51:56.300Z,66.87
2018-03-26T05:52:56.327Z,67.16
2018-03-26T05:53:56.355Z,66.91
2018-03-26T05:54:56.369Z,66.81
2018-03-26T05:55:56.417Z,66.14
2018-03-26T05:56:56.428Z,66.24
2018-03-26T05:57:56.441Z,66.24
2018-03-26T05:58:56.471Z,66.14
2018-03-26T05:59:56.493Z,66.43
2018-03-26T06:00:56.522Z,66.62
2018-03-26T06:01:56.540Z,66.87
2018-03-26T06:02:56.563Z,66.97
2018-03-26T06:03:56.584Z,67.44
2018-03-26T06:04:56.609Z,67.25
2018-03-26T06:05:56.640Z,66.33
2018-03-26T06:06:56.667Z,66.68
2018-03-26T06:07:56.683Z,66.59
2018-03-26T06:08:56.714Z,66.62
2018-03-26T06:09:56.730Z,66.53
2018-03-26T06:10:56.762Z,66.72
2018-03-26T06:11:56.931Z,66.72
2018-03-26T06:12:56.804Z,66.05
2018-03-26T06:13:56.878Z,66.14
2018-03-26T06:14:56.866Z,66.05
2018-03-26T06:15:56.883Z,66.91
2018-03-26T06:16:56.903Z,66.53
2018-03-26T06:17:56.933Z,66.24
2018-03-26T06:18:56.948Z,66.33
2018-03-26T06:19:56.974Z,66.53
2018-03-26T06:20:57.003Z,65.86
2018-03-26T06:21:57.020Z,66.24
2018-03-26T06:22:57.053Z,66.05
2018-03-26T06:23:57.079Z,66.33
2018-03-26T06:24:57.147Z,66.81
2018-03-26T06:25:57.144Z,66.53
2018-03-26T06:26:57.159Z,66.24
2018-03-26T06:27:57.180Z,66.33
2018-03-26T06:28:57.194Z,65.77
2018-03-26T06:29:57.226Z,66.05
2018-03-26T06:30:57.245Z,65.95
2018-03-26T06:31:57.268Z,65.67
2018-03-26T06:32:57.301Z,65.58
2018-03-26T06:33:57.317Z,65.58
2018-03-26T06:34:57.357Z,65.77
2018-03-26T06:35:57.457Z,65.10
2018-03-26T06:36:57.413Z,65.48
2018-03-26T06:37:57.437Z,64.81
2018-03-26T06:38:57.444Z,64.72
2018-03-26T06:39:57.462Z,64.62
2018-03-26T06:40:57.490Z,64.72
2018-03-26T06:41:57.510Z,64.72
2018-03-26T06:42:57.537Z,64.53
2018-03-26T06:43:57.592Z,64.53
2018-03-26T06:44:57.590Z,64.15
2018-03-26T06:45:57.608Z,64.15
2018-03-26T06:46:57.637Z,64.15
2018-03-26T06:51:44.988Z,64.62
2018-03-26T06:52:45.001Z,64.15
2018-03-26T06:54:38.196Z,64.72
2018-03-26T06:55:38.261Z,64.62
2018-03-26T06:57:30.496Z,64.43
2018-03-26T06:58:30.454Z,64.34
2018-03-26T07:00:38.008Z,64.62
2018-03-26T07:01:38.058Z,64.34
2018-03-26T07:03:31.175Z,63.48
2018-03-26T07:04:31.205Z,63.86
2018-03-26T07:06:24.405Z,64.11
2018-03-26T07:07:24.411Z,64.40
2018-03-26T07:09:17.602Z,65.45
2018-03-26T07:10:17.654Z,65.16
2018-03-26T07:12:10.853Z,65.25
2018-03-26T07:13:10.849Z,64.72
2018-03-26T07:15:04.016Z,64.53
2018-03-26T07:16:03.996Z,64.34
2018-03-26T07:17:57.183Z,64.50
2018-03-26T07:18:57.169Z,64.62
2018-03-26T07:20:50.367Z,63.96
2018-03-26T07:21:50.377Z,63.10
2018-03-26T07:23:43.518Z,63.20
2018-03-26T07:24:43.543Z,62.91
2018-03-26T07:26:36.722Z,63.39
2018-03-26T07:27:36.721Z,62.91
2018-03-26T07:29:29.902Z,62.62
2018-03-26T07:30:29.908Z,62.43
2018-03-26T07:32:23.227Z,62.15
2018-03-26T07:33:23.115Z,62.91
2018-03-26T07:35:16.293Z,62.53
2018-03-26T07:36:16.292Z,62.37
2018-03-26T07:38:09.469Z,62.27
2018-03-26T07:39:09.452Z,62.37
2018-03-26T07:41:02.643Z,62.37
2018-03-26T07:42:02.654Z,62.27
2018-03-26T07:43:55.806Z,61.99
2018-03-26T07:44:55.809Z,61.99
2018-03-26T07:46:48.970Z,62.08
2018-03-26T07:47:48.983Z,62.08
2018-03-26T07:49:42.163Z,63.76
2018-03-26T07:50:42.188Z,68.65
2018-03-26T07:52:35.674Z,66.18
2018-03-26T07:53:35.369Z,63.51
2018-03-26T07:55:28.485Z,63.04
2018-03-26T07:56:28.511Z,62.18
2018-03-26T07:58:21.757Z,62.27
2018-03-26T07:59:21.713Z,62.37
2018-03-26T08:01:14.915Z,62.56
2018-03-26T08:02:14.928Z,61.90
2018-03-26T08:04:08.126Z,62.27
2018-03-26T08:05:08.133Z,62.15
2018-03-26T08:07:01.365Z,62.75
2018-03-26T08:08:01.351Z,62.65
2018-03-26T08:09:54.526Z,62.85
2018-03-26T08:10:54.550Z,62.08
2018-03-26T08:12:47.783Z,62.46
2018-03-26T08:13:47.793Z,62.27
2018-03-26T08:15:40.944Z,61.99
2018-03-26T08:16:40.980Z,61.90
2018-03-26T08:18:34.144Z,61.80
2018-03-26T08:19:34.145Z,61.51
2018-03-26T08:21:27.313Z,61.90
2018-03-26T08:22:27.375Z,61.70
2018-03-26T08:24:20.518Z,61.51
2018-03-26T08:25:20.513Z,61.61
2018-03-26T08:27:13.772Z,61.99
2018-03-26T08:28:13.779Z,61.80
2018-03-26T08:30:06.950Z,61.61
2018-03-26T08:31:06.994Z,61.61
2018-03-26T08:33:00.160Z,62.37
2018-03-26T08:34:00.155Z,61.70
2018-03-26T08:35:53.319Z,62.08
2018-03-26T08:36:53.348Z,62.46
2018-03-26T08:38:46.533Z,62.18
2018-03-26T08:39:46.549Z,63.23
2018-03-26T08:41:39.847Z,62.85
2018-03-26T08:42:39.824Z,63.60
2018-03-26T08:44:33.001Z,63.60
2018-03-26T08:45:33.039Z,63.42
2018-03-26T08:47:26.218Z,63.04
2018-03-26T08:48:26.220Z,62.65
2018-03-26T08:50:32.797Z,63.04
2018-03-26T08:51:32.880Z,62.65
2018-03-26T08:53:25.983Z,62.75
2018-03-26T08:54:25.972Z,62.40
2018-03-26T08:56:35.499Z,62.59
2018-03-26T08:57:35.509Z,62.65
2018-03-26T08:59:45.038Z,62.30
2018-03-26T09:00:45.051Z,62.49
2018-03-26T09:01:45.075Z,61.64
2018-03-26T09:02:45.107Z,61.54
2018-03-26T09:03:45.132Z,61.54
2018-03-26T09:04:45.157Z,61.73
2018-03-26T09:05:45.224Z,61.93
2018-03-26T09:06:45.229Z,61.64
2018-03-26T09:07:45.902Z,61.93
2018-03-26T09:08:45.251Z,61.73
2018-03-26T09:09:45.279Z,61.64
2018-03-26T09:10:45.296Z,61.45
2018-03-26T09:11:45.324Z,61.73
2018-03-26T09:12:45.348Z,61.54
2018-03-26T09:13:45.383Z,61.73
2018-03-26T09:14:45.416Z,61.45
2018-03-26T09:15:45.438Z,61.64
2018-03-26T09:16:45.459Z,61.83
2018-03-26T09:17:45.471Z,62.02
2018-03-26T09:18:45.505Z,62.40
2018-03-26T09:19:45.528Z,62.49
2018-03-26T09:20:45.562Z,62.40
2018-03-26T09:21:45.581Z,62.72
2018-03-26T09:22:45.612Z,61.67
2018-03-26T09:23:45.628Z,62.40
2018-03-26T09:24:45.649Z,61.67
2018-03-26T09:25:45.678Z,61.86
2018-03-26T09:26:45.706Z,61.67
2018-03-26T09:27:45.744Z,62.30
2018-03-26T09:28:45.750Z,63.17
2018-03-26T09:29:45.784Z,62.68
2018-03-26T09:30:45.814Z,62.59
2018-03-26T09:31:45.830Z,62.49
2018-03-26T09:32:45.861Z,62.43
2018-03-26T09:33:45.903Z,62.05
2018-03-26T09:34:45.929Z,61.83
2018-03-26T09:35:45.936Z,62.02
2018-03-26T09:36:45.968Z,63.17
2018-03-26T09:37:45.977Z,63.07
2018-03-26T09:38:46.000Z,62.97
2018-03-26T09:39:46.032Z,63.54
2018-03-26T09:40:46.061Z,63.07
2018-03-26T09:41:46.092Z,63.26
2018-03-26T09:42:46.105Z,62.81
2018-03-26T09:43:46.137Z,62.72
2018-03-26T09:44:46.161Z,62.72
2018-03-26T09:45:46.181Z,62.72
2018-03-26T09:46:46.212Z,62.21
2018-03-26T09:47:46.288Z,63.83
2018-03-26T09:48:46.262Z,64.12
2018-03-26T09:49:46.291Z,64.75
2018-03-26T09:50:46.320Z,65.36
2018-03-26T09:51:46.335Z,64.69
2018-03-26T09:52:46.359Z,64.59
2018-03-26T09:53:46.384Z,64.40
2018-03-26T09:54:46.415Z,64.84
2018-03-26T09:55:46.439Z,65.42
2018-03-26T09:56:46.461Z,65.99
2018-03-26T09:57:46.486Z,65.99
2018-03-26T09:58:46.573Z,66.11
2018-03-26T09:59:46.548Z,65.73
2018-03-26T10:00:46.567Z,65.26
2018-03-26T10:01:46.617Z,64.78
2018-03-26T10:02:46.608Z,64.78
2018-03-26T10:03:46.637Z,64.40
2018-03-26T10:04:46.678Z,64.53
2018-03-26T10:05:46.688Z,64.34
2018-03-26T10:06:46.724Z,63.67
2018-03-26T10:07:46.746Z,64.15
2018-03-26T10:08:46.763Z,63.57
2018-03-26T10:09:46.798Z,63.76
2018-03-26T10:10:46.819Z,63.67
2018-03-26T10:11:46.922Z,63.86
2018-03-26T10:12:46.868Z,64.05
2018-03-26T10:13:46.926Z,64.59
2018-03-26T10:14:46.920Z,64.53
2018-03-26T10:15:46.947Z,65.55
2018-03-26T10:16:46.976Z,65.86
2018-03-26T10:17:46.995Z,65.64
2018-03-26T10:18:47.018Z,65.96
2018-03-26T10:19:47.068Z,65.58
2018-03-26T10:20:47.111Z,65.48
2018-03-26T10:21:47.098Z,65.67
2018-03-26T10:22:47.132Z,66.15
2018-03-26T10:23:47.147Z,65.67
2018-03-26T10:24:47.252Z,65.86
2018-03-26T10:25:47.195Z,66.53
2018-03-26T10:26:47.222Z,66.53
2018-03-26T10:27:47.247Z,66.44
2018-03-26T10:28:47.273Z,66.05
2018-03-26T10:29:47.303Z,66.53
2018-03-26T10:30:47.326Z,66.63
2018-03-26T10:31:47.341Z,67.29
2018-03-26T10:32:47.384Z,67.39
2018-03-26T10:33:47.418Z,67.86
2018-03-26T10:34:47.440Z,69.96
2018-03-26T10:35:47.481Z,71.20
2018-03-26T10:36:47.485Z,69.39
2018-03-26T10:37:47.516Z,67.86
2018-03-26T10:38:47.568Z,67.48
2018-03-26T10:39:47.551Z,67.77
2018-03-26T10:40:47.574Z,67.20
2018-03-26T10:41:47.604Z,66.91
2018-03-26T10:42:47.643Z,68.05
2018-03-26T10:43:47.667Z,67.86
2018-03-26T10:44:47.795Z,67.86
2018-03-26T10:45:47.712Z,67.96
2018-03-26T10:46:47.800Z,68.05
2018-03-26T10:47:47.763Z,67.77
2018-03-26T10:48:47.782Z,68.24
2018-03-26T10:49:47.806Z,68.24
2018-03-26T10:50:47.827Z,68.15
2018-03-26T10:51:47.857Z,68.05
2018-03-26T10:52:47.877Z,68.05
2018-03-26T10:53:47.921Z,69.17
2018-03-26T10:54:47.947Z,70.21
2018-03-26T10:55:47.971Z,70.40
2018-03-26T10:56:47.980Z,71.07
2018-03-26T10:57:48.014Z,72.02
2018-03-26T10:58:48.029Z,70.88
2018-03-26T10:59:48.061Z,70.12
2018-03-26T11:00:48.086Z,70.12
2018-03-26T11:01:48.115Z,70.12
2018-03-26T11:02:48.135Z,70.02
2018-03-26T11:03:48.160Z,70.02
2018-03-26T11:04:48.183Z,69.93
2018-03-26T11:05:48.217Z,70.50
2018-03-26T11:06:48.235Z,69.64
2018-03-26T11:07:48.268Z,70.31
2018-03-26T11:08:48.285Z,70.02
2018-03-26T11:09:48.311Z,70.59
2018-03-26T11:10:48.330Z,70.69
2018-03-26T11:11:48.360Z,70.88
2018-03-26T11:12:48.387Z,70.50
2018-03-26T11:13:48.409Z,70.78
2018-03-26T11:14:48.446Z,70.88
2018-03-26T11:15:48.458Z,71.07
2018-03-26T11:16:48.484Z,70.97
2018-03-26T11:17:48.532Z,70.97
2018-03-26T11:18:48.535Z,71.07
2018-03-26T11:19:48.565Z,71.17
2018-03-26T11:20:48.645Z,71.36
2018-03-26T11:21:48.622Z,71.93
2018-03-26T11:22:48.665Z,71.73
2018-03-26T11:23:48.679Z,71.93
2018-03-26T11:24:48.700Z,72.12
2018-03-26T11:25:48.715Z,71.93
2018-03-26T11:26:48.745Z,72.31
2018-03-26T11:27:48.802Z,72.60
2018-03-26T11:28:48.796Z,72.50
2018-03-26T11:29:48.817Z,73.17
2018-03-26T11:30:48.838Z,73.07
2018-03-26T11:31:48.876Z,73.74
2018-03-26T11:32:48.900Z,73.58
2018-03-26T11:33:48.913Z,73.49
2018-03-26T11:34:48.951Z,73.49
2018-03-26T11:35:48.975Z,73.93
2018-03-26T11:36:48.992Z,73.93
2018-03-26T11:37:49.037Z,74.50
2018-03-26T11:38:49.038Z,74.79
2018-03-26T11:39:49.178Z,74.79
2018-03-26T11:40:49.100Z,74.60
2018-03-26T11:41:49.261Z,75.26
2018-03-26T11:42:49.144Z,75.93
2018-03-26T11:43:49.172Z,75.84
2018-03-26T11:44:49.195Z,75.26
2018-03-26T11:45:49.244Z,74.21
2018-03-26T11:46:49.250Z,75.64
2018-03-26T11:47:49.265Z,75.74
2018-03-26T11:48:49.288Z,75.26
2018-03-26T11:49:49.327Z,75.64
2018-03-26T11:50:49.338Z,75.45
2018-03-26T11:51:49.389Z,75.26
2018-03-26T11:52:49.396Z,75.26
2018-03-26T11:53:49.420Z,76.18
2018-03-26T11:54:49.461Z,76.94
2018-03-26T11:55:49.466Z,76.88
2018-03-26T11:56:49.495Z,77.17
2018-03-26T11:57:49.529Z,76.40
2018-03-26T11:58:49.544Z,76.21
2018-03-26T11:59:49.574Z,76.40
2018-03-26T12:00:49.590Z,76.50
2018-03-26T12:01:49.617Z,76.21
2018-03-26T12:02:49.637Z,77.03
2018-03-26T12:03:49.727Z,76.94
2018-03-26T12:04:49.700Z,76.37
2018-03-26T12:05:49.740Z,76.84
2018-03-26T12:06:49.740Z,77.89
2018-03-26T12:07:49.763Z,77.80
2018-03-26T12:08:49.807Z,77.89
2018-03-26T12:09:49.816Z,77.98
2018-03-26T12:10:49.845Z,76.94
2018-03-26T12:11:49.892Z,77.03
2018-03-26T12:12:49.890Z,77.32
2018-03-26T12:13:49.932Z,78.37
2018-03-26T12:14:49.943Z,78.37
2018-03-26T12:15:49.966Z,77.80
2018-03-26T12:16:49.985Z,77.51
2018-03-26T12:17:50.026Z,77.22
2018-03-26T12:18:50.040Z,76.84
2018-03-26T12:19:50.108Z,77.13
2018-03-26T12:20:50.087Z,77.03
2018-03-26T12:21:50.126Z,77.98
2018-03-26T12:22:50.155Z,78.75
2018-03-26T12:23:50.164Z,78.17
2018-03-26T12:24:50.188Z,77.80
2018-03-26T12:25:50.223Z,78.08
2018-03-26T12:26:50.244Z,78.08
2018-03-26T12:27:50.265Z,77.98
2018-03-26T12:28:50.296Z,77.80
2018-03-26T12:29:50.314Z,77.98
2018-03-26T12:30:50.334Z,77.98
2018-03-26T12:31:50.371Z,77.80
2018-03-26T12:32:50.392Z,77.70
2018-03-26T12:33:50.416Z,77.51
2018-03-26T12:34:50.461Z,77.03
2018-03-26T12:35:50.459Z,77.42
2018-03-26T12:36:50.486Z,77.22
2018-03-26T12:37:50.513Z,77.70
2018-03-26T12:38:50.536Z,77.42
2018-03-26T12:39:50.587Z,77.51
2018-03-26T12:40:50.586Z,77.22
2018-03-26T12:41:50.619Z,77.22
2018-03-26T12:42:50.633Z,77.03
2018-03-26T12:43:50.676Z,76.94
2018-03-26T12:44:50.681Z,77.22
2018-03-26T12:45:50.717Z,77.22
2018-03-26T12:46:50.745Z,77.32
2018-03-26T12:47:50.771Z,76.84
2018-03-26T12:48:50.803Z,76.94
2018-03-26T12:49:50.805Z,77.13
2018-03-26T12:50:50.858Z,77.80
2018-03-26T12:51:50.868Z,77.70
2018-03-26T12:52:50.884Z,77.22
2018-03-26T12:53:50.937Z,77.70
2018-03-26T12:54:50.947Z,76.94
2018-03-26T12:55:50.962Z,77.42
2018-03-26T12:56:50.988Z,77.80
2018-03-26T12:57:51.020Z,77.61
2018-03-26T12:58:51.037Z,77.89
2018-03-26T12:59:51.057Z,77.89
2018-03-26T13:00:51.092Z,77.51
2018-03-26T13:01:51.112Z,77.32
2018-03-26T13:02:51.224Z,77.32
2018-03-26T13:03:51.168Z,77.37
2018-03-26T13:04:51.180Z,77.80
2018-03-26T13:05:51.231Z,78.33
2018-03-26T13:06:51.235Z,78.33
2018-03-26T13:07:51.300Z,78.42
2018-03-26T13:08:51.284Z,78.61
2018-03-26T13:09:51.365Z,78.52
2018-03-26T13:10:51.336Z,78.04
2018-03-26T13:11:51.372Z,77.76
2018-03-26T13:12:51.380Z,77.70
2018-03-26T13:13:51.401Z,77.32
2018-03-26T13:14:51.427Z,76.75
2018-03-26T13:15:51.449Z,77.00
2018-03-26T13:16:51.485Z,76.90
2018-03-26T13:17:51.519Z,77.28
2018-03-26T13:18:51.534Z,77.19
2018-03-26T13:19:51.548Z,76.81
2018-03-26T13:20:51.596Z,77.09
2018-03-26T13:21:51.597Z,75.79
2018-03-26T13:22:51.637Z,75.67
2018-03-26T13:23:51.654Z,76.14
2018-03-26T13:24:51.682Z,75.85
2018-03-26T13:25:51.707Z,76.37
2018-03-26T13:26:51.717Z,75.70
2018-03-26T13:27:51.745Z,75.79
2018-03-26T13:28:51.775Z,75.13
2018-03-26T13:29:51.807Z,75.51
2018-03-26T13:30:51.818Z,75.04
2018-03-26T13:31:51.915Z,74.56
2018-03-26T13:32:51.871Z,74.50
2018-03-26T13:33:51.898Z,74.69
2018-03-26T13:34:51.919Z,76.88
2018-03-26T13:35:51.949Z,77.45
2018-03-26T13:36:51.970Z,79.74